Time;durP1;ratioP1;P1;durP2;ratioP2;P2;SDS_P1;SDS_P2;PMS_P1;PMS_P2;Temp;Humidity;BMP_temperature;BMP_pressure;BME280_temperature;BME280_humidity;BME280_pressure;Samples;Min_cycle;Max_cycle;Signal;HPM_P1;HPM_P2
2021/01/17 00:02:17;;;;;;;0.10;0.10;;;;;;;-21.75;75.31;100769.49;1757980;81;21433;-48
2021/01/17 00:04:44;;;;;;;0.10;0.10;;;;;;;-21.76;75.24;100766.95;1757964;81;21658;-48
2021/01/17 00:07:12;;;;;;;0.20;0.20;;;;;;;-21.82;75.08;100762.87;1704328;82;21568;-47
2021/01/17 00:09:39;;;;;;;0.10;0.10;;;;;;;-21.84;75.12;100762.56;1720954;83;21216;-49
2021/01/17 00:12:08;;;;;;;0.10;0.10;;;;;;;-21.93;75.18;100710.20;1703423;84;21445;-47
2021/01/17 00:14:36;;;;;;;0.10;0.10;;;;;;;-21.91;75.31;100712.23;1669703;83;21130;-48
2021/01/17 00:17:03;;;;;;;0.10;0.10;;;;;;;-21.88;75.37;100726.82;1724487;83;21130;-48
2021/01/17 00:19:31;;;;;;;0.10;0.10;;;;;;;-21.87;75.39;100723.34;1724281;83;21126;-47
2021/01/17 00:21:59;;;;;;;0.20;0.20;;;;;;;-21.85;75.43;100720.66;1724320;83;21138;-48
2021/01/17 00:24:26;;;;;;;2.20;2.10;;;;;;;-21.82;75.45;100715.36;1721700;83;21122;-47
2021/01/17 00:26:54;;;;;;;0.10;0.10;;;;;;;-21.83;75.43;100711.94;1724322;83;21154;-48
2021/01/17 00:29:21;;;;;;;0.10;0.10;;;;;;;-21.82;75.47;100716.20;1732593;82;21140;-48
2021/01/17 00:31:51;;;;;;;0.10;0.10;;;;;;;-21.79;75.48;100719.95;1732651;82;21547;-48
2021/01/17 00:34:18;;;;;;;0.30;0.30;;;;;;;-21.78;75.43;100715.17;1732818;82;21449;-48
2021/01/17 00:36:46;;;;;;;0.20;0.20;;;;;;;-21.80;75.40;100713.09;1732727;82;21112;-48
2021/01/17 00:39:13;;;;;;;0.20;0.20;;;;;;;-21.79;75.36;100717.81;1732792;82;21504;-47
2021/01/17 00:41:40;;;;;;;0.10;0.10;;;;;;;-21.81;75.29;100719.17;1732654;82;21174;-48
2021/01/17 00:44:08;;;;;;;0.10;0.10;;;;;;;-21.85;75.19;100717.64;1732656;82;21291;-48
2021/01/17 00:46:38;;;;;;;0.13;0.13;;;;;;;-21.92;75.15;100717.52;1732747;82;21445;-47
2021/01/17 00:49:06;;;;;;;0.20;0.20;;;;;;;-21.97;75.19;100722.05;1732655;82;21607;-48
2021/01/17 00:51:44;;;;;;;0.10;0.10;;;;;;;-21.97;75.20;100719.47;1732645;82;21146;-48
2021/01/17 00:54:15;;;;;;;0.10;0.10;;;;;;;-22.01;75.11;100719.20;1701580;82;21557;-48
2021/01/17 00:56:43;;;;;;;0.10;0.10;;;;;;;-22.03;75.14;100718.41;1732744;82;21161;-47
2021/01/17 00:59:11;;;;;;;0.20;0.20;;;;;;;-22.03;75.14;100728.78;1732720;82;21656;-47
2021/01/17 01:01:43;;;;;;;0.10;0.10;;;;;;;-22.06;75.12;100736.23;1732527;82;21596;-48
2021/01/17 01:04:13;;;;;;;0.20;0.20;;;;;;;-22.07;75.03;100737.62;1732643;82;21157;-47
2021/01/17 01:06:40;;;;;;;0.10;0.10;;;;;;;-22.10;75.02;100733.83;1746940;81;21150;-48
2021/01/17 01:09:13;;;;;;;0.10;0.10;;;;;;;-22.10;75.12;100729.95;1756481;81;21268;-48
2021/01/17 01:11:42;;;;;;;0.20;0.20;;;;;;;-22.10;75.14;100729.52;1756522;81;21114;-47
2021/01/17 01:14:09;;;;;;;0.10;0.10;;;;;;;-22.15;75.04;100724.95;1736352;81;21192;-47
2021/01/17 01:16:37;;;;;;;0.10;0.10;;;;;;;-22.19;75.05;100726.04;1705720;84;21124;-48
2021/01/17 01:19:04;;;;;;;0.20;0.20;;;;;;;-22.24;75.06;100732.70;1705614;84;21180;-48
2021/01/17 01:21:35;;;;;;;0.20;0.20;;;;;;;-22.28;75.07;100720.77;1705548;84;21154;-47
2021/01/17 01:24:03;;;;;;;0.10;0.10;;;;;;;-22.32;75.05;100728.30;1705509;84;21167;-48
2021/01/17 01:26:39;;;;;;;0.10;0.10;;;;;;;-22.36;75.04;100726.73;1720914;83;21651;-48
2021/01/17 01:29:06;;;;;;;0.20;0.20;;;;;;;-22.38;75.03;100729.84;1720997;83;21702;-47
2021/01/17 01:31:35;;;;;;;0.13;0.13;;;;;;;-22.41;75.02;100719.61;1721023;83;21495;-48
2021/01/17 01:34:03;;;;;;;0.10;0.10;;;;;;;-22.45;75.00;100721.92;1720869;83;21164;-48
2021/01/17 01:36:34;;;;;;;0.20;0.20;;;;;;;-22.49;75.00;100725.56;1720745;83;21156;-48
2021/01/17 01:39:02;;;;;;;0.13;0.13;;;;;;;-22.49;75.07;100721.68;1720873;83;21169;-48
2021/01/17 01:41:33;;;;;;;0.20;0.20;;;;;;;-22.51;75.05;100712.66;1720937;83;21156;-46
2021/01/17 01:44:00;;;;;;;0.10;0.10;;;;;;;-22.53;75.08;100708.00;1720707;83;21527;-46
2021/01/17 01:46:29;;;;;;;0.10;0.10;;;;;;;-22.52;75.13;100711.42;1720819;83;21554;-48
2021/01/17 01:48:59;;;;;;;0.13;0.13;;;;;;;-22.54;75.12;100705.48;1720937;83;21200;-48
2021/01/17 01:51:27;;;;;;;0.13;0.13;;;;;;;-22.55;75.14;100708.50;1746161;81;21134;-47
2021/01/17 01:53:56;;;;;;;0.10;0.10;;;;;;;-22.54;75.22;100702.89;1755452;81;21400;-47
2021/01/17 01:56:24;;;;;;;0.10;0.10;;;;;;;-22.55;75.19;100706.38;1755422;81;21123;-47
2021/01/17 01:58:52;;;;;;;0.20;0.20;;;;;;;-22.56;75.23;100709.42;1755333;81;21130;-47
2021/01/17 02:01:22;;;;;;;0.10;0.10;;;;;;;-22.54;75.23;100704.19;1755308;81;21142;-47
2021/01/17 02:03:51;;;;;;;0.13;0.13;;;;;;;-22.51;75.24;100698.88;1755470;81;21664;-48
2021/01/17 02:06:23;;;;;;;0.10;0.10;;;;;;;-22.49;75.24;100696.61;1754374;81;21143;-48
2021/01/17 02:09:23;;;;;;;0.10;0.10;;;;;;;-22.48;75.16;100700.03;1725036;81;21170;-47
2021/01/17 02:12:13;;;;;;;0.10;0.10;;;;;;;-22.48;75.08;100700.03;1752252;81;21155;-47
2021/01/17 02:15:07;;;;;;;0.20;0.20;;;;;;;-22.48;75.14;100690.97;1731369;81;21130;-48
2021/01/17 02:17:35;;;;;;;0.10;0.10;;;;;;;-22.47;75.14;100699.12;1723867;83;20960;-47
2021/01/17 02:20:11;;;;;;;0.10;0.10;;;;;;;-22.45;75.22;100697.31;1723784;82;21525;-48
2021/01/17 02:23:02;;;;;;;0.10;0.10;;;;;;;-22.42;75.26;100699.77;1723745;83;21197;-48
2021/01/17 02:25:32;;;;;;;0.10;0.10;;;;;;;-22.39;75.29;100707.44;1723705;83;21189;-47
2021/01/17 02:28:01;;;;;;;0.20;0.20;;;;;;;-22.38;75.25;100698.75;1723744;83;21143;-47
2021/01/17 02:30:31;;;;;;;0.10;0.10;;;;;;;-22.37;75.22;100712.95;1723768;82;21119;-47
2021/01/17 02:33:02;;;;;;;0.17;0.17;;;;;;;-22.37;75.21;100695.27;1723642;83;21126;-48
2021/01/17 02:35:30;;;;;;;0.17;0.17;;;;;;;-22.34;75.25;100694.30;1697969;83;27081;-47
2021/01/17 02:38:09;;;;;;;0.20;0.20;;;;;;;-22.36;75.18;100702.13;1697241;83;21149;-47
2021/01/17 02:41:06;;;;;;;0.20;0.20;;;;;;;-22.34;75.21;100701.61;1723693;83;21178;-48
2021/01/17 02:43:34;;;;;;;0.10;0.10;;;;;;;-22.33;75.24;100703.28;1723863;83;21576;-47
2021/01/17 02:46:01;;;;;;;0.10;0.10;;;;;;;-22.30;75.29;100704.44;1723733;82;21087;-47
2021/01/17 02:48:29;;;;;;;0.10;0.10;;;;;;;-22.29;75.25;100710.03;1723786;83;21146;-48
2021/01/17 02:50:56;;;;;;;0.20;0.20;;;;;;;-22.29;75.18;100706.60;1738503;81;21139;-47
2021/01/17 02:53:31;;;;;;;0.63;0.63;;;;;;;-22.30;75.17;100703.14;1752058;81;21139;-47
2021/01/17 02:55:59;;;;;;;0.13;0.13;;;;;;;-22.30;75.18;100700.55;1752024;81;21179;-47
2021/01/17 02:58:27;;;;;;;0.20;0.20;;;;;;;-22.32;75.13;100704.98;1752125;81;21146;-47
2021/01/17 03:00:57;;;;;;;0.37;0.37;;;;;;;-22.34;75.10;100704.20;1752330;81;21392;-47
2021/01/17 03:03:35;;;;;;;0.10;0.10;;;;;;;-22.31;75.13;100714.89;1752256;81;21582;-47
2021/01/17 03:06:05;;;;;;;0.10;0.10;;;;;;;-22.32;75.07;100706.28;1752112;81;21139;-47
2021/01/17 03:08:32;;;;;;;0.20;0.20;;;;;;;-22.29;75.13;100701.42;1725441;81;22132;-47
2021/01/17 03:10:59;;;;;;;0.20;0.20;;;;;;;-22.29;75.07;100702.26;1752070;81;21123;-47
2021/01/17 03:13:27;;;;;;;0.10;0.10;;;;;;;-22.29;74.99;100704.02;1749810;81;21177;-47
2021/01/17 03:15:55;;;;;;;0.10;0.10;;;;;;;-22.33;74.97;100699.39;1746619;80;21646;-47
2021/01/17 03:18:22;;;;;;;0.20;0.20;;;;;;;-22.35;75.00;100697.31;1752015;81;21139;-48
2021/01/17 03:20:50;;;;;;;0.20;0.20;;;;;;;-22.32;75.07;100701.09;1752161;81;21159;-47
2021/01/17 03:23:17;;;;;;;0.10;0.10;;;;;;;-22.29;75.05;100698.83;1752077;81;21133;-46
2021/01/17 03:25:45;;;;;;;0.10;0.10;;;;;;;-22.30;74.95;100700.55;1752076;81;21147;-47
2021/01/17 03:28:13;;;;;;;0.20;0.20;;;;;;;-22.32;74.92;100697.21;1752089;81;21179;-47
2021/01/17 03:30:40;;;;;;;2.70;2.53;;;;;;;-22.31;74.90;100698.05;1752236;81;21387;-46
2021/01/17 03:33:07;;;;;;;0.10;0.10;;;;;;;-22.35;74.73;100693.43;1752010;81;21135;-47
2021/01/17 03:35:36;;;;;;;0.20;0.20;;;;;;;-22.43;74.63;100701.98;1752087;81;21127;-47
2021/01/17 03:38:03;;;;;;;0.20;0.20;;;;;;;-22.50;74.60;100697.95;1751990;81;21158;-47
2021/01/17 03:40:31;;;;;;;0.20;0.20;;;;;;;-22.53;74.58;100707.16;1752075;81;21143;-48
2021/01/17 03:42:58;;;;;;;0.10;0.10;;;;;;;-22.57;74.57;100703.41;1752236;81;21138;-47
2021/01/17 03:45:25;;;;;;;0.20;0.20;;;;;;;-22.57;74.58;100701.24;1752239;81;21108;-46
2021/01/17 03:47:53;;;;;;;0.20;0.20;;;;;;;-22.55;74.65;100696.02;1752207;81;21124;-47
2021/01/17 03:50:21;;;;;;;0.10;0.10;;;;;;;-22.55;74.52;100700.73;1750549;81;21576;-47
2021/01/17 03:52:48;;;;;;;0.10;0.10;;;;;;;-22.63;74.41;100697.63;1736149;82;21576;-47
2021/01/17 03:55:15;;;;;;;0.20;0.20;;;;;;;-22.70;74.35;100697.02;1736298;82;21406;-47
2021/01/17 03:57:43;;;;;;;0.20;0.20;;;;;;;-22.74;74.42;100696.77;1736267;82;21127;-47
2021/01/17 04:00:12;;;;;;;0.10;0.10;;;;;;;-22.73;74.51;100699.73;1736152;82;21493;-46
2021/01/17 04:02:39;;;;;;;0.20;0.20;;;;;;;-22.70;74.50;100698.31;1736214;82;21130;-47
2021/01/17 04:05:08;;;;;;;0.20;0.20;;;;;;;-22.69;74.49;100694.84;1736121;82;21162;-47
2021/01/17 04:07:36;;;;;;;0.20;0.20;;;;;;;-22.66;74.52;100703.77;1736224;82;21146;-47
2021/01/17 04:10:04;;;;;;;0.20;0.20;;;;;;;-22.65;74.46;100698.97;1736251;82;21186;-47
2021/01/17 04:12:34;;;;;;;0.10;0.10;;;;;;;-22.70;74.27;100703.49;1735993;82;21139;-48
2021/01/17 04:15:02;;;;;;;1.17;1.17;;;;;;;-22.76;74.12;100698.58;1708507;84;21128;-48
2021/01/17 04:17:29;;;;;;;0.20;0.20;;;;;;;-22.81;74.08;100708.28;1708517;84;21192;-47
2021/01/17 04:19:56;;;;;;;0.20;0.20;;;;;;;-22.89;74.06;100706.42;1708449;83;21145;-48
2021/01/17 04:22:24;;;;;;;0.10;0.10;;;;;;;-22.91;74.06;100706.95;1708402;84;21165;-47
2021/01/17 04:24:51;;;;;;;0.10;0.10;;;;;;;-22.93;74.09;100710.05;1708473;84;21133;-47
2021/01/17 04:27:18;;;;;;;0.20;0.20;;;;;;;-22.92;74.17;100703.50;1708422;83;21149;-47
2021/01/17 04:29:46;;;;;;;0.30;0.30;;;;;;;-22.89;74.19;100705.13;1703393;83;21469;-47
2021/01/17 04:32:13;;;;;;;0.10;0.10;;;;;;;-22.86;74.20;100710.20;1703375;84;21125;-47
2021/01/17 04:34:40;;;;;;;0.10;0.10;;;;;;;-22.86;74.18;100714.92;1703351;84;21094;-48
2021/01/17 04:37:08;;;;;;;0.20;0.20;;;;;;;-22.84;74.13;100714.87;1703361;84;21145;-47
2021/01/17 04:39:35;;;;;;;0.20;0.20;;;;;;;-22.85;74.15;100712.72;1703409;83;21133;-47
2021/01/17 04:42:02;;;;;;;0.10;0.10;;;;;;;-22.85;74.11;100711.42;1703077;84;21180;-47
2021/01/17 04:44:34;;;;;;;0.33;0.33;;;;;;;-22.85;74.08;100713.17;1673095;84;21162;-47
2021/01/17 04:47:03;;;;;;;;;;;;;;;-22.86;74.03;100721.40;1705865;84;21145;-48
2021/01/17 04:49:38;;;;;;;1.27;1.07;;;;;;;-22.89;73.91;100725.41;1703196;84;20576;-46
2021/01/17 04:52:07;;;;;;;0.20;0.20;;;;;;;-22.95;73.82;100719.63;1732682;82;21639;-46
2021/01/17 04:54:35;;;;;;;0.20;0.20;;;;;;;-22.97;73.86;100714.98;1732716;82;21170;-47
2021/01/17 04:57:23;;;;;;;0.20;0.20;;;;;;;-22.97;73.85;100718.86;1732849;82;21422;-46
2021/01/17 05:00:08;;;;;;;0.20;0.20;;;;;;;-22.99;73.84;100723.25;1718216;82;21190;-48
2021/01/17 05:03:02;;;;;;;0.10;0.10;;;;;;;-22.97;73.88;100722.75;1732730;82;21126;-47
2021/01/17 05:05:32;;;;;;;0.20;0.20;;;;;;;-22.94;73.86;100722.59;1732615;82;21138;-47
2021/01/17 05:08:30;;;;;;;0.10;0.10;;;;;;;-22.94;73.82;100714.82;1721397;81;21122;-47
2021/01/17 05:11:06;;;;;;;0.10;0.10;;;;;;;-22.93;73.82;100717.82;1759438;81;21462;-47
2021/01/17 05:13:38;;;;;;;0.10;0.10;;;;;;;-22.92;73.76;100715.15;1746677;81;21151;-47
2021/01/17 05:16:07;;;;;;;0.10;0.10;;;;;;;-22.94;73.68;100707.05;1740717;81;21696;-47
2021/01/17 05:18:36;;;;;;;2.83;2.63;;;;;;;-22.95;73.64;100711.40;1759511;81;21170;-47
2021/01/17 05:21:03;;;;;;;0.20;0.20;;;;;;;-22.97;73.56;100714.98;1759490;81;21147;-47
2021/01/17 05:23:33;;;;;;;0.10;0.10;;;;;;;-23.01;73.53;100722.88;1759426;81;21171;-48
2021/01/17 05:26:05;;;;;;;0.17;0.17;;;;;;;-23.05;73.39;100720.46;1727672;83;21476;-47
2021/01/17 05:28:33;;;;;;;0.10;0.10;;;;;;;-23.10;73.42;100714.16;1759594;81;21166;-47
2021/01/17 05:31:01;;;;;;;0.10;0.10;;;;;;;-23.09;73.40;100713.28;1728888;82;21171;-48
2021/01/17 05:33:31;;;;;;;0.10;0.10;;;;;;;-23.19;73.10;100710.63;1710892;83;21146;-46
2021/01/17 05:36:00;;;;;;;0.10;0.10;;;;;;;-23.30;73.02;100710.20;1711089;83;21143;-46
2021/01/17 05:38:27;;;;;;;0.20;0.20;;;;;;;-23.38;73.07;100714.84;1711060;83;21509;-47
2021/01/17 05:40:54;;;;;;;0.20;0.20;;;;;;;-23.41;73.05;100712.34;1710993;83;21134;-47
2021/01/17 05:43:22;;;;;;;0.77;0.77;;;;;;;-23.47;73.10;100707.80;1710981;83;21198;-47
2021/01/17 05:45:49;;;;;;;0.20;0.20;;;;;;;-23.48;73.12;100717.76;1710889;83;21159;-47
2021/01/17 05:48:16;;;;;;;0.17;0.17;;;;;;;-23.50;73.08;100715.67;1729169;82;21162;-47
2021/01/17 05:50:44;;;;;;;0.20;0.20;;;;;;;-23.52;73.11;100728.27;1740736;81;21095;-47
2021/01/17 05:53:12;;;;;;;0.17;0.17;;;;;;;-23.53;73.11;100730.02;1755877;81;21552;-47
2021/01/17 05:55:41;;;;;;;6.47;1.73;;;;;;;-23.54;73.10;100730.90;1755970;81;21198;-47
2021/01/17 05:58:31;;;;;;;0.10;0.10;;;;;;;-23.54;73.13;100724.89;1755756;81;21830;-47
2021/01/17 06:01:02;;;;;;;3.87;3.03;;;;;;;-23.52;73.09;100729.10;1756122;81;21162;-47
2021/01/17 06:03:32;;;;;;;0.20;0.20;;;;;;;-23.56;73.02;100739.19;1754090;81;21194;-48
2021/01/17 06:06:04;;;;;;;0.20;0.20;;;;;;;-23.57;73.05;100731.02;1757595;81;21138;-47
2021/01/17 06:08:33;;;;;;;5.83;2.30;;;;;;;-23.56;73.04;100731.85;1751653;81;21178;-48
2021/01/17 06:11:10;;;;;;;0.40;0.40;;;;;;;-23.55;73.04;100740.02;1749183;82;21442;-48
2021/01/17 06:13:39;;;;;;;0.10;0.10;;;;;;;-23.55;73.11;100749.91;1710232;83;21163;-47
2021/01/17 06:16:32;;;;;;;0.10;0.10;;;;;;;-23.50;73.23;100745.41;1711773;81;21164;-48
2021/01/17 06:19:03;;;;;;;0.73;0.73;;;;;;;-23.41;73.32;100740.37;1722284;81;22064;-47
2021/01/17 06:21:31;;;;;;;0.17;0.17;;;;;;;-23.30;73.34;100732.20;1747314;82;21628;-47
2021/01/17 06:24:06;;;;;;;0.10;0.10;;;;;;;-23.25;73.22;100727.69;1747272;82;21191;-47
2021/01/17 06:26:35;;;;;;;0.10;0.10;;;;;;;-23.25;73.12;100724.65;1746798;82;21148;-46
2021/01/17 06:29:09;;;;;;;0.10;0.10;;;;;;;-23.16;73.35;100734.24;1747226;82;21171;-47
2021/01/17 06:31:36;;;;;;;0.20;0.20;;;;;;;-23.09;73.39;100730.09;1747532;81;21140;-48
2021/01/17 06:34:08;;;;;;;0.10;0.10;;;;;;;-23.03;73.45;100725.97;1747289;82;21143;-47
2021/01/17 06:36:38;;;;;;;2.57;2.47;;;;;;;-22.92;73.60;100722.08;1747346;82;21155;-47
2021/01/17 06:39:26;;;;;;;0.10;0.10;;;;;;;-22.81;73.70;100726.40;1747323;82;21316;-47
2021/01/17 06:41:55;;;;;;;0.20;0.20;;;;;;;-22.71;73.79;100723.83;1747713;81;21111;-47
2021/01/17 06:44:30;;;;;;;2.53;2.33;;;;;;;-22.61;73.97;100729.03;1752213;81;21156;-48
2021/01/17 06:46:57;;;;;;;0.20;0.20;;;;;;;-22.47;74.21;100725.89;1752083;81;21566;-47
2021/01/17 06:49:32;;;;;;;0.40;0.40;;;;;;;-22.30;74.37;100730.35;1752088;81;21138;-48
2021/01/17 06:52:04;;;;;;;0.20;0.20;;;;;;;-22.17;74.48;100729.38;1746798;81;21125;-47
2021/01/17 06:54:37;;;;;;;0.20;0.20;;;;;;;-22.01;74.63;100723.92;1746643;82;21531;-48
2021/01/17 06:57:05;;;;;;;0.50;0.50;;;;;;;-21.87;74.79;100720.75;1746521;82;21163;-48
2021/01/17 06:59:44;;;;;;;0.10;0.10;;;;;;;-21.68;74.97;100730.30;1746577;82;21127;-47
2021/01/17 07:02:32;;;;;;;0.20;0.20;;;;;;;-21.47;75.11;100730.66;1746472;81;21151;-48
2021/01/17 07:05:33;;;;;;;2.83;2.73;;;;;;;-21.26;75.21;100721.88;1746093;82;21384;-48
2021/01/17 07:08:23;;;;;;;0.10;0.10;;;;;;;-21.05;75.19;100715.31;1748519;81;21130;-47
2021/01/17 07:10:54;;;;;;;3.40;2.63;;;;;;;-20.92;75.21;100719.00;1752064;81;21147;-48
2021/01/17 07:13:22;;;;;;;0.10;0.10;;;;;;;-20.76;75.37;100724.80;1716677;83;24730;-48
2021/01/17 07:15:50;;;;;;;0.10;0.10;;;;;;;-20.61;75.62;100721.45;1736271;82;21178;-48
2021/01/17 07:18:18;;;;;;;0.10;0.10;;;;;;;-20.44;75.81;100721.45;1736493;82;21491;-48
2021/01/17 07:20:49;;;;;;;0.10;0.10;;;;;;;-20.25;75.98;100724.42;1736495;81;21128;-49
2021/01/17 07:23:18;;;;;;;2.42;0.80;;;;;;;-20.03;76.13;100722.42;1736574;82;21129;-48
2021/01/17 07:25:46;;;;;;;0.10;0.10;;;;;;;-19.83;76.29;100712.30;1736453;81;21476;-49
2021/01/17 07:28:17;;;;;;;0.40;0.40;;;;;;;-19.63;76.31;100709.09;1736518;82;21208;-49
2021/01/17 07:31:03;;;;;;;0.10;0.10;;;;;;;-19.45;76.40;100706.02;1736438;81;21171;-48
2021/01/17 07:33:36;;;;;;;0.10;0.10;;;;;;;-19.25;76.54;100708.84;1736024;82;21136;-49
2021/01/17 07:36:06;;;;;;;0.23;0.23;;;;;;;-19.05;76.48;100700.78;1736162;81;21145;-48
2021/01/17 07:38:39;;;;;;;0.10;0.10;;;;;;;-18.87;76.41;100708.05;1725466;82;21170;-49
2021/01/17 07:41:09;;;;;;;0.60;0.60;;;;;;;-18.71;76.41;100706.24;1703501;84;21218;-48
2021/01/17 07:43:38;;;;;;;1.47;1.37;;;;;;;-18.55;76.56;100707.51;1703754;84;21129;-48
2021/01/17 07:46:14;;;;;;;0.17;0.17;;;;;;;-18.38;76.54;100713.55;1704042;84;21149;-49
2021/01/17 07:48:43;;;;;;;0.10;0.10;;;;;;;-18.24;76.58;100717.51;1703801;84;21129;-48
2021/01/17 07:51:15;;;;;;;0.13;0.13;;;;;;;-18.06;76.66;100720.34;1704040;84;21134;-48
2021/01/17 07:54:02;;;;;;;0.10;0.10;;;;;;;-17.89;76.71;100727.19;1703854;84;21164;-49
2021/01/17 07:56:32;;;;;;;0.10;0.10;;;;;;;-17.72;76.62;100731.85;1703929;84;21126;-48
2021/01/17 07:59:05;;;;;;;0.20;0.20;;;;;;;-17.53;76.61;100736.80;1761729;79;21146;-48
2021/01/17 08:01:39;;;;;;;0.10;0.10;;;;;;;-17.42;76.31;100730.00;1777854;80;21110;-48
2021/01/17 08:04:16;;;;;;;0.20;0.20;;;;;;;-17.36;76.11;100730.91;1718080;83;21240;-48
2021/01/17 08:06:47;;;;;;;0.10;0.10;;;;;;;-17.28;76.26;100740.06;1719189;83;21126;-48
2021/01/17 08:09:16;;;;;;;0.23;0.23;;;;;;;-17.18;76.18;100737.25;1706260;83;21145;-49
2021/01/17 08:11:56;;;;;;;0.10;0.10;;;;;;;-17.07;76.15;100738.74;1755320;80;21445;-48
2021/01/17 08:14:34;;;;;;;0.10;0.10;;;;;;;-16.95;76.29;100737.98;1752347;81;21503;-48
2021/01/17 08:17:20;;;;;;;0.73;0.73;;;;;;;-16.81;76.23;100738.87;1723222;81;21210;-48
2021/01/17 08:20:00;;;;;;;1.13;1.13;;;;;;;-16.71;75.90;100751.73;1726693;81;21191;-49
2021/01/17 08:22:33;;;;;;;0.13;0.13;;;;;;;-16.64;75.96;100750.38;1737811;81;21635;-48
2021/01/17 08:25:05;;;;;;;0.17;0.17;;;;;;;-16.53;75.82;100744.02;1709123;83;21100;-48
2021/01/17 08:27:44;;;;;;;0.25;0.25;;;;;;;-16.45;75.68;100751.37;1725949;82;24846;-48
2021/01/17 08:30:14;;;;;;;2.73;2.43;;;;;;;-16.37;75.77;100748.25;1747575;81;21138;-48
2021/01/17 08:32:44;;;;;;;0.10;0.10;;;;;;;-16.22;75.88;100742.02;1747049;81;21149;-48
2021/01/17 08:35:24;;;;;;;0.10;0.10;;;;;;;-16.05;75.99;100743.05;1718456;83;21144;-48
2021/01/17 08:38:15;;;;;;;0.20;0.20;;;;;;;-15.94;75.54;100735.81;1704984;83;21148;-48
2021/01/17 08:40:47;;;;;;;0.10;0.10;;;;;;;-15.85;75.39;100748.75;1737009;80;21082;-49
2021/01/17 08:43:16;;;;;;;0.10;0.10;;;;;;;-15.77;75.03;100742.55;1774209;80;21565;-48
2021/01/17 08:45:49;;;;;;;0.10;0.10;;;;;;;-15.71;75.07;100739.50;1787126;79;21150;-48
2021/01/17 08:48:27;;;;;;;0.10;0.10;;;;;;;-15.57;75.14;100729.38;1788653;79;21545;-49
2021/01/17 08:51:13;;;;;;;0.10;0.10;;;;;;;-15.44;74.59;100730.68;1729886;81;21159;-49
2021/01/17 08:53:41;;;;;;;0.10;0.10;;;;;;;-15.36;74.41;100734.91;1761155;80;21130;-49
2021/01/17 08:56:21;;;;;;;0.10;0.10;;;;;;;-15.30;74.26;100723.16;1768828;79;21052;-48
2021/01/17 08:58:53;;;;;;;0.10;0.10;;;;;;;-15.17;74.42;100722.21;1753093;81;21166;-48
2021/01/17 09:01:22;;;;;;;0.10;0.10;;;;;;;-15.01;74.38;100715.88;1770055;80;21117;-48
2021/01/17 09:03:54;;;;;;;0.20;0.20;;;;;;;-14.85;73.92;100721.73;1767414;80;21628;-48
2021/01/17 09:06:26;;;;;;;0.62;0.62;;;;;;;-14.77;73.63;100723.80;1750433;81;21161;-48
2021/01/17 09:09:00;;;;;;;0.10;0.10;;;;;;;-14.69;73.62;100711.44;1699364;83;21222;-48
2021/01/17 09:11:38;;;;;;;0.10;0.10;;;;;;;-14.56;73.52;100714.84;1735638;82;21234;-48
2021/01/17 09:14:25;;;;;;;0.10;0.10;;;;;;;-14.46;73.39;100722.41;1734458;82;21242;-46
2021/01/17 09:17:03;;;;;;;0.40;0.40;;;;;;;-14.33;73.19;100717.09;1708349;83;21154;-47
2021/01/17 09:19:34;;;;;;;0.10;0.10;;;;;;;-14.23;72.68;100712.83;1696888;82;21166;-48
2021/01/17 09:22:04;;;;;;;0.10;0.10;;;;;;;-14.18;72.16;100709.88;1721752;82;21154;-48
2021/01/17 09:24:35;;;;;;;0.50;0.50;;;;;;;-14.13;72.16;100717.77;1708118;83;21824;-47
2021/01/17 09:27:05;;;;;;;0.10;0.10;;;;;;;-14.05;72.08;100713.25;1723355;82;21161;-47
2021/01/17 09:29:36;;;;;;;0.17;0.17;;;;;;;-13.93;72.08;100709.70;1733180;82;21137;-47
2021/01/17 09:32:10;;;;;;;0.10;0.10;;;;;;;-13.79;71.90;100707.84;1734898;82;21178;-46
2021/01/17 09:34:40;;;;;;;0.10;0.10;;;;;;;-13.69;71.70;100707.50;1737707;82;21192;-46
2021/01/17 09:37:17;;;;;;;0.10;0.10;;;;;;;-13.60;71.64;100698.89;1730441;82;21434;-47
2021/01/17 09:39:51;;;;;;;0.20;0.20;;;;;;;-13.50;71.41;100705.14;1720524;82;21167;-47
2021/01/17 09:42:20;;;;;;;0.10;0.10;;;;;;;-13.38;71.23;100710.39;1723921;82;21222;-47
2021/01/17 09:44:59;;;;;;;0.10;0.10;;;;;;;-13.26;70.91;100703.67;1733913;82;21137;-47
2021/01/17 09:47:27;;;;;;;0.10;0.10;;;;;;;-13.12;70.46;100705.72;1728656;82;21936;-47
2021/01/17 09:49:58;;;;;;;0.10;0.10;;;;;;;-13.07;70.03;100704.39;1728164;82;21194;-48
2021/01/17 09:52:25;;;;;;;0.10;0.10;;;;;;;-13.04;69.82;100713.34;1730567;82;21516;-47
2021/01/17 09:54:54;;;;;;;0.10;0.10;;;;;;;-13.00;69.41;100709.53;1730918;82;21181;-48
2021/01/17 09:57:23;;;;;;;0.80;0.53;;;;;;;-12.96;69.22;100705.33;1720895;82;21538;-48
2021/01/17 09:59:52;;;;;;;0.17;0.17;;;;;;;-12.89;69.13;100709.16;1737095;82;21150;-47
2021/01/17 10:02:25;;;;;;;0.10;0.10;;;;;;;-12.87;68.94;100704.61;1734055;82;21029;-47
2021/01/17 10:04:53;;;;;;;0.10;0.10;;;;;;;-12.86;68.53;100698.37;1722213;82;26351;-48
2021/01/17 10:07:21;;;;;;;0.10;0.10;;;;;;;-12.87;68.26;100705.92;1722234;82;21142;-48
2021/01/17 10:09:51;;;;;;;0.10;0.10;;;;;;;-12.87;68.00;100705.92;1738368;82;21134;-47
2021/01/17 10:12:20;;;;;;;0.20;0.20;;;;;;;-12.84;67.77;100702.56;1731627;82;21178;-47
2021/01/17 10:14:47;;;;;;;0.10;0.10;;;;;;;-12.79;67.71;100708.29;1768240;80;21141;-48
2021/01/17 10:17:15;;;;;;;0.10;0.10;;;;;;;-12.71;67.44;100704.21;1760038;81;21711;-48
2021/01/17 10:19:45;;;;;;;0.10;0.10;;;;;;;-12.71;67.11;100706.36;1771714;80;21121;-48
2021/01/17 10:22:15;;;;;;;0.10;0.10;;;;;;;-12.72;66.96;100700.75;1762850;80;21129;-48
2021/01/17 10:24:42;;;;;;;0.10;0.10;;;;;;;-12.72;66.61;100699.44;1760360;80;21149;-48
2021/01/17 10:27:11;;;;;;;0.10;0.10;;;;;;;-12.73;65.65;100700.41;1788791;80;21154;-48
2021/01/17 10:29:41;;;;;;;1.00;1.00;;;;;;;-12.83;65.58;100701.63;1765826;80;21153;-48
2021/01/17 10:32:12;;;;;;;0.68;0.68;;;;;;;-12.91;65.23;100702.69;1762868;80;21187;-48
2021/01/17 10:34:43;;;;;;;0.20;0.20;;;;;;;-12.94;65.58;100696.36;1782420;80;21152;-48
2021/01/17 10:37:13;;;;;;;0.10;0.10;;;;;;;-12.95;65.52;100689.92;1785369;79;21145;-48
2021/01/17 10:39:43;;;;;;;0.13;0.13;;;;;;;-12.93;65.42;100686.66;1790468;80;21153;-48
2021/01/17 10:42:30;;;;;;;0.10;0.10;;;;;;;-12.89;65.51;100677.09;1790392;80;21133;-48
2021/01/17 10:45:06;;;;;;;0.10;0.10;;;;;;;-12.80;65.43;100680.80;1764956;80;21133;-49
2021/01/17 10:48:02;;;;;;;0.10;0.10;;;;;;;-12.78;65.47;100681.03;1764528;80;21115;-49
2021/01/17 10:50:33;;;;;;;0.10;0.10;;;;;;;-12.72;65.63;100684.95;1770739;80;21129;-48
2021/01/17 10:53:19;;;;;;;0.10;0.10;;;;;;;-12.64;65.31;100680.39;1784838;80;21138;-49
2021/01/17 10:55:53;;;;;;;0.10;0.10;;;;;;;-12.59;64.99;100686.11;1781401;80;21540;-49
2021/01/17 10:58:29;;;;;;;0.33;0.28;;;;;;;-12.58;64.88;100684.69;1782061;80;21149;-48
2021/01/17 11:00:58;;;;;;;0.10;0.10;;;;;;;-12.56;64.73;100682.77;1788259;80;21117;-48
2021/01/17 11:03:41;;;;;;;0.10;0.10;;;;;;;-12.53;64.68;100676.88;1789247;80;21596;-48
2021/01/17 11:06:21;;;;;;;0.10;0.10;;;;;;;-12.51;64.47;100686.80;1783776;80;21547;-48
2021/01/17 11:08:52;;;;;;;0.62;0.57;;;;;;;-12.49;64.46;100690.16;1758468;81;21629;-48
2021/01/17 11:11:29;;;;;;;0.10;0.10;;;;;;;-12.50;64.14;100675.33;1760397;80;27460;-49
2021/01/17 11:14:03;;;;;;;0.10;0.10;;;;;;;-12.50;64.14;100675.33;1714682;82;21138;-49
2021/01/17 11:16:39;;;;;;;0.10;0.10;;;;;;;-12.54;63.68;100683.94;1791151;80;21232;-49
2021/01/17 11:19:08;;;;;;;0.10;0.10;;;;;;;-12.63;63.41;100682.91;1790351;78;21525;-49
2021/01/17 11:21:37;;;;;;;0.10;0.10;;;;;;;-12.69;63.54;100684.70;1791593;80;21580;-49
2021/01/17 11:24:06;;;;;;;0.13;0.13;;;;;;;-12.68;63.51;100683.77;1756635;81;21178;-49
2021/01/17 11:26:35;;;;;;;0.17;0.17;;;;;;;-12.70;62.96;100670.37;1739201;82;21114;-49
2021/01/17 11:29:07;;;;;;;0.10;0.10;;;;;;;-12.73;63.09;100670.59;1741322;81;21152;-48
2021/01/17 11:31:35;;;;;;;0.20;0.20;;;;;;;-12.71;63.37;100664.24;1777133;80;20979;-47
2021/01/17 11:34:13;;;;;;;2.72;1.65;;;;;;;-12.68;63.72;100656.58;1739968;80;21393;-48
2021/01/17 11:36:41;;;;;;;0.10;0.10;;;;;;;-12.62;63.32;100659.56;1789333;80;21121;-48
2021/01/17 11:39:09;;;;;;;0.10;0.10;;;;;;;-12.62;63.02;100656.92;1789259;79;21725;-48